createdAt,value
2022-10-12T00:01:48.980Z,27.23
2022-10-12T00:04:16.068Z,28.60
2022-10-12T00:06:43.081Z,28.30
2022-10-12T00:09:10.118Z,31.10
2022-10-12T00:11:37.192Z,28.23
2022-10-12T00:14:04.195Z,32.08
2022-10-12T00:16:31.793Z,32.10
2022-10-12T00:18:59.161Z,29.98
2022-10-12T00:21:26.932Z,32.92
2022-10-12T00:23:56.616Z,33.80
2022-10-12T00:26:24.257Z,35.58
2022-10-12T00:28:56.475Z,34.25
2022-10-12T00:31:23.588Z,35.03
2022-10-12T00:33:50.631Z,36.92
2022-10-12T00:36:22.034Z,29.95
2022-10-12T00:38:49.705Z,31.73
2022-10-12T00:41:17.947Z,29.75
2022-10-12T00:43:45.879Z,36.30
2022-10-12T00:46:21.109Z,29.63
2022-10-12T00:48:49.998Z,33.60
2022-10-12T00:51:19.204Z,37.42
2022-10-12T00:53:49.185Z,33.25
2022-10-12T00:56:18.768Z,32.42
2022-10-12T00:58:46.694Z,29.40
2022-10-12T01:01:13.810Z,35.70
2022-10-12T01:03:41.628Z,30.60
2022-10-12T01:06:08.719Z,32.90
2022-10-12T01:08:37.340Z,30.42
2022-10-12T01:11:04.725Z,34.70
2022-10-12T01:13:32.298Z,27.15
2022-10-12T01:16:02.120Z,32.03
2022-10-12T01:18:38.195Z,31.13
2022-10-12T01:21:11.631Z,30.05
2022-10-12T01:23:44.544Z,31.73
2022-10-12T01:26:25.620Z,29.55
2022-10-12T01:29:12.874Z,32.35
2022-10-12T01:31:49.181Z,31.15
2022-10-12T01:34:22.791Z,35.95
2022-10-12T01:36:52.601Z,30.83
2022-10-12T01:39:26.195Z,31.88
2022-10-12T01:41:58.173Z,32.10
2022-10-12T01:44:26.322Z,31.92
2022-10-12T01:46:57.079Z,34.10
2022-10-12T01:49:29.256Z,31.98
2022-10-12T01:52:14.901Z,36.60
2022-10-12T01:54:52.366Z,31.65
2022-10-12T01:57:36.204Z,33.67
2022-10-12T02:00:21.662Z,32.25
2022-10-12T02:03:07.268Z,33.55
2022-10-12T02:05:37.307Z,37.03
2022-10-12T02:08:12.267Z,29.90
2022-10-12T02:10:41.512Z,29.13
2022-10-12T02:13:10.647Z,32.20
2022-10-12T02:15:38.981Z,34.70
2022-10-12T02:18:06.294Z,33.08
2022-10-12T02:20:34.006Z,38.90
2022-10-12T02:23:02.424Z,32.63
2022-10-12T02:25:29.818Z,38.95
2022-10-12T02:28:00.676Z,39.42
2022-10-12T02:30:28.371Z,38.53
2022-10-12T02:33:08.125Z,43.00
2022-10-12T02:35:41.680Z,34.25
2022-10-12T02:38:13.439Z,32.92
2022-10-12T02:41:02.259Z,35.78
2022-10-12T02:43:35.504Z,29.25
2022-10-12T02:46:03.154Z,29.63
2022-10-12T02:48:30.633Z,37.70
2022-10-12T02:50:58.423Z,33.72
2022-10-12T02:53:27.075Z,33.45
2022-10-12T02:55:56.364Z,39.20
2022-10-12T02:58:23.367Z,33.55
2022-10-12T03:00:50.383Z,40.20
2022-10-12T03:03:17.662Z,35.40
2022-10-12T03:05:44.652Z,31.45
2022-10-12T03:08:11.695Z,31.30
2022-10-12T03:10:38.717Z,36.17
2022-10-12T03:13:05.735Z,31.58
2022-10-12T03:15:32.747Z,34.78
2022-10-12T03:17:59.742Z,35.92
2022-10-12T03:20:26.729Z,33.88
2022-10-12T03:22:53.724Z,38.03
2022-10-12T03:25:20.950Z,39.40
2022-10-12T03:27:48.035Z,42.00
2022-10-12T03:30:15.091Z,36.78
2022-10-12T03:32:42.119Z,42.17
2022-10-12T03:35:09.401Z,42.28
2022-10-12T03:37:36.714Z,38.67
2022-10-12T03:40:04.486Z,40.08
2022-10-12T03:42:31.471Z,43.30
2022-10-12T03:44:58.452Z,53.78
2022-10-12T03:47:25.461Z,42.45
2022-10-12T03:49:52.519Z,43.25
2022-10-12T03:52:19.512Z,47.85
2022-10-12T03:54:46.484Z,46.67
2022-10-12T03:57:13.483Z,47.28
2022-10-12T03:59:40.456Z,49.10
2022-10-12T04:02:07.447Z,60.20
2022-10-12T04:04:34.494Z,55.05
2022-10-12T04:07:01.513Z,53.60
2022-10-12T04:09:28.700Z,56.38
2022-10-12T04:11:55.838Z,47.25
2022-10-12T04:14:22.827Z,50.08
2022-10-12T04:16:49.904Z,54.92
2022-10-12T04:19:16.896Z,59.20
2022-10-12T04:21:43.897Z,51.17
2022-10-12T04:24:10.871Z,54.25
2022-10-12T04:26:37.988Z,57.40
2022-10-12T04:29:05.333Z,55.40
2022-10-12T04:31:32.326Z,57.80
2022-10-12T04:33:59.392Z,58.88
2022-10-12T04:36:26.753Z,56.35
2022-10-12T04:38:59.865Z,60.20
2022-10-12T04:41:27.804Z,60.80
2022-10-12T04:43:54.823Z,52.45
2022-10-12T04:46:21.945Z,53.47
2022-10-12T04:48:48.976Z,62.92
2022-10-12T04:51:15.982Z,53.15
2022-10-12T04:53:42.977Z,51.80
2022-10-12T04:56:10.113Z,61.60
2022-10-12T04:58:37.391Z,56.53
2022-10-12T05:01:04.644Z,56.38
2022-10-12T05:03:31.812Z,59.17
2022-10-12T05:05:58.867Z,64.07
2022-10-12T05:08:25.890Z,58.50
2022-10-12T05:10:53.136Z,64.07
2022-10-12T05:13:20.207Z,61.25
2022-10-12T05:15:47.235Z,54.97
2022-10-12T05:18:14.278Z,62.00
2022-10-12T05:20:41.290Z,69.13
2022-10-12T05:23:08.310Z,61.55
2022-10-12T05:25:36.463Z,60.85
2022-10-12T05:28:03.564Z,69.35
2022-10-12T05:30:30.673Z,64.00
2022-10-12T05:32:57.660Z,59.75
2022-10-12T05:35:24.669Z,57.90
2022-10-12T05:37:51.747Z,59.92
2022-10-12T05:40:18.855Z,70.07
2022-10-12T05:42:45.921Z,79.57
2022-10-12T05:45:14.006Z,58.28
2022-10-12T05:47:41.507Z,66.15
2022-10-12T05:50:08.881Z,52.67
2022-10-12T05:52:36.330Z,63.25
2022-10-12T05:55:03.727Z,67.55
2022-10-12T05:57:30.807Z,56.72
2022-10-12T05:59:58.083Z,49.25
2022-10-12T06:02:25.151Z,48.20
2022-10-12T06:04:52.210Z,47.33
2022-10-12T06:07:19.175Z,48.85
2022-10-12T06:09:47.552Z,54.90
2022-10-12T06:12:15.899Z,54.80
2022-10-12T06:14:43.966Z,59.50
2022-10-12T06:17:11.005Z,64.93
2022-10-12T06:19:38.015Z,58.28
2022-10-12T06:22:05.033Z,57.08
2022-10-12T06:24:32.112Z,58.80
2022-10-12T06:26:59.116Z,53.63
2022-10-12T06:29:26.523Z,52.65
2022-10-12T06:31:54.231Z,68.72
2022-10-12T06:34:21.436Z,56.97
2022-10-12T06:36:49.295Z,51.97
2022-10-12T06:39:16.445Z,75.95
2022-10-12T06:41:43.531Z,53.58
2022-10-12T06:44:10.547Z,53.20
2022-10-12T06:46:37.573Z,60.45
2022-10-12T06:49:04.626Z,56.38
2022-10-12T06:51:31.739Z,55.78
2022-10-12T06:53:58.776Z,63.22
2022-10-12T06:56:25.811Z,55.88
2022-10-12T06:58:56.158Z,58.97
2022-10-12T07:01:23.478Z,54.70
2022-10-12T07:03:50.585Z,62.95
2022-10-12T07:06:17.701Z,49.85
2022-10-12T07:08:44.772Z,62.20
2022-10-12T07:11:12.436Z,57.40
2022-10-12T07:13:39.827Z,52.78
2022-10-12T07:16:07.456Z,57.10
2022-10-12T07:18:34.561Z,46.47
2022-10-12T07:21:02.668Z,53.58
2022-10-12T07:23:33.354Z,46.85
2022-10-12T07:26:00.433Z,46.30
2022-10-12T07:28:27.676Z,45.13
2022-10-12T07:30:54.808Z,40.60
2022-10-12T07:33:21.871Z,49.90
2022-10-12T07:36:12.776Z,45.85
2022-10-12T07:38:44.675Z,46.47
2022-10-12T07:41:12.030Z,42.58
2022-10-12T07:43:39.181Z,41.13
2022-10-12T07:46:06.324Z,39.42
2022-10-12T07:48:34.077Z,39.75
2022-10-12T07:51:07.773Z,41.47
2022-10-12T07:53:35.212Z,43.45
2022-10-12T07:56:02.570Z,42.38
2022-10-12T07:58:29.705Z,45.55
2022-10-12T08:00:56.708Z,36.75
2022-10-12T08:03:23.909Z,47.78
2022-10-12T08:05:50.965Z,43.97
2022-10-12T08:08:17.967Z,44.25
2022-10-12T08:10:44.968Z,38.20
2022-10-12T08:13:11.973Z,43.03
2022-10-12T08:15:38.947Z,48.75
2022-10-12T08:18:06.044Z,45.42
2022-10-12T08:20:33.077Z,46.90
2022-10-12T08:23:00.128Z,40.85
2022-10-12T08:25:27.212Z,48.33
2022-10-12T08:27:54.288Z,50.20
2022-10-12T08:30:26.726Z,42.92
2022-10-12T08:32:54.122Z,41.85
2022-10-12T08:35:21.123Z,46.75
2022-10-12T08:37:48.111Z,40.70
2022-10-12T08:40:19.630Z,43.45
2022-10-12T08:42:58.635Z,39.42
2022-10-12T08:45:30.601Z,37.78
2022-10-12T08:48:03.171Z,39.75
2022-10-12T08:50:41.408Z,40.97
2022-10-12T08:53:19.104Z,37.67
2022-10-12T08:55:47.015Z,36.03
2022-10-12T08:58:18.497Z,37.35
2022-10-12T11:56:27.071Z,24.33
2022-10-12T11:59:01.051Z,27.95
2022-10-12T12:01:39.897Z,24.60
2022-10-12T12:04:42.658Z,27.27
2022-10-12T12:07:29.462Z,26.35
2022-10-12T12:09:56.082Z,25.80
2022-10-12T12:12:25.645Z,27.35
2022-10-12T12:14:55.047Z,22.90
2022-10-12T12:17:21.909Z,23.23
2022-10-12T12:19:52.214Z,24.13
2022-10-12T12:22:29.033Z,25.90
2022-10-12T12:25:23.796Z,22.27
2022-10-12T12:27:53.758Z,21.17
2022-10-12T12:30:24.321Z,22.92
2022-10-12T12:32:57.713Z,23.35
2022-10-12T12:35:24.272Z,23.33
2022-10-12T12:38:15.254Z,25.02
2022-10-12T12:40:53.793Z,20.58
2022-10-12T12:43:29.422Z,23.85
2022-10-12T12:45:57.478Z,21.90
2022-10-12T12:48:39.470Z,22.77
2022-10-12T12:51:12.377Z,23.23
2022-10-12T12:53:59.028Z,21.77
2022-10-12T12:57:01.505Z,23.80
2022-10-12T12:59:38.403Z,24.17
2022-10-12T13:02:23.210Z,23.75
2022-10-12T13:05:04.809Z,20.25
2022-10-12T13:08:04.137Z,22.60
2022-10-12T13:10:50.562Z,21.20
2022-10-12T13:13:39.198Z,23.88
2022-10-12T13:16:36.641Z,25.30
2022-10-12T13:19:11.685Z,21.80
2022-10-12T13:21:45.740Z,21.98
2022-10-12T13:26:59.913Z,19.02
2022-10-12T13:29:39.329Z,23.25
2022-10-12T13:32:19.395Z,22.05
2022-10-12T13:34:49.792Z,21.05
2022-10-12T13:37:16.883Z,22.70
2022-10-12T13:39:46.940Z,23.83
2022-10-12T13:42:23.325Z,23.05
2022-10-12T13:44:50.303Z,22.05
2022-10-12T13:47:28.907Z,23.02
2022-10-12T13:49:56.599Z,20.40
2022-10-12T13:52:32.729Z,24.15
2022-10-12T13:55:00.865Z,22.30
2022-10-12T13:57:41.193Z,21.02
2022-10-12T14:00:16.560Z,22.25
2022-10-12T14:02:57.806Z,20.27
2022-10-12T14:05:26.295Z,20.33
2022-10-12T14:07:57.092Z,22.50
2022-10-12T14:10:29.533Z,28.77
2022-10-12T14:12:57.142Z,26.60
2022-10-12T14:15:27.706Z,19.13
2022-10-12T14:17:55.177Z,19.85
2022-10-12T14:20:33.081Z,21.30
2022-10-12T14:23:02.054Z,21.67
2022-10-12T14:25:33.101Z,22.90
2022-10-12T14:28:06.616Z,20.60
2022-10-12T14:30:36.667Z,21.85
2022-10-12T14:33:30.126Z,21.90
2022-10-12T14:36:16.665Z,21.65
2022-10-12T14:38:45.400Z,22.20
2022-10-12T14:41:31.570Z,19.58
2022-10-12T14:44:10.425Z,21.08
2022-10-12T14:46:39.088Z,21.63
2022-10-12T14:49:06.271Z,19.60
2022-10-12T14:51:33.997Z,22.80
2022-10-12T14:54:01.847Z,20.25
2022-10-12T14:56:28.947Z,24.05
2022-10-12T14:58:56.018Z,28.55
2022-10-12T15:01:23.605Z,23.58
2022-10-12T15:03:50.729Z,25.75
2022-10-12T15:06:17.804Z,23.80
2022-10-12T15:08:45.336Z,19.58
2022-10-12T15:11:13.249Z,21.02
2022-10-12T15:13:40.740Z,20.10
2022-10-12T15:16:34.262Z,20.27
2022-10-12T15:19:01.306Z,25.48
2022-10-12T15:21:28.362Z,29.35
2022-10-12T15:23:56.946Z,27.70
2022-10-12T15:26:24.079Z,24.42
2022-10-12T15:28:51.380Z,26.23
2022-10-12T15:31:19.160Z,27.30
2022-10-12T15:33:46.650Z,25.00
2022-10-12T15:36:13.794Z,21.83
2022-10-12T15:38:40.839Z,22.80
2022-10-12T15:41:15.229Z,25.90
2022-10-12T15:43:42.428Z,26.45
2022-10-12T15:46:12.767Z,25.25
2022-10-12T15:48:40.269Z,25.50
2022-10-12T15:51:09.826Z,30.30
2022-10-12T15:53:36.831Z,27.25
2022-10-12T15:56:07.636Z,30.50
2022-10-12T15:58:34.639Z,28.17
2022-10-12T16:01:01.739Z,22.58
2022-10-12T16:03:31.603Z,22.73
2022-10-12T16:05:58.784Z,27.17
2022-10-12T16:08:25.836Z,24.30
2022-10-12T16:10:53.004Z,24.90
2022-10-12T16:13:20.527Z,24.55
2022-10-12T16:15:47.656Z,27.83
2022-10-12T16:18:17.926Z,22.42
2022-10-12T16:20:47.635Z,29.35
2022-10-12T16:23:26.375Z,24.63
2022-10-12T16:25:53.559Z,29.35
2022-10-12T16:28:21.282Z,26.08
2022-10-12T16:30:49.575Z,25.13
2022-10-12T16:33:17.002Z,26.33
2022-10-12T16:35:44.008Z,28.80
2022-10-12T16:38:11.330Z,25.40
2022-10-12T16:40:42.271Z,25.77
2022-10-12T16:43:09.305Z,31.92
2022-10-12T16:45:36.314Z,27.83
2022-10-12T16:48:03.339Z,24.55
2022-10-12T16:50:30.410Z,27.73
2022-10-12T16:52:57.699Z,21.80
2022-10-12T16:55:24.739Z,26.77
2022-10-12T16:57:51.735Z,28.50
2022-10-12T17:00:19.484Z,26.60
2022-10-12T17:02:47.499Z,29.15
2022-10-12T17:05:14.531Z,28.65
2022-10-12T17:07:41.522Z,29.08
2022-10-12T17:10:08.947Z,26.13
2022-10-12T17:12:36.027Z,27.05
2022-10-12T17:15:03.043Z,24.23
2022-10-12T17:17:30.077Z,25.60
2022-10-12T17:19:57.113Z,24.50
2022-10-12T17:22:24.155Z,25.58
2022-10-12T17:24:51.187Z,27.10
2022-10-12T17:27:18.580Z,30.15
2022-10-12T17:29:46.025Z,29.05
2022-10-12T17:32:13.280Z,26.08
2022-10-12T17:34:41.583Z,24.15
2022-10-12T17:37:11.248Z,31.67
2022-10-12T17:39:40.243Z,27.20
2022-10-12T17:42:07.451Z,27.33
2022-10-12T17:44:34.535Z,24.45
2022-10-12T17:47:02.031Z,27.52
2022-10-12T17:49:29.195Z,25.00
2022-10-12T17:51:56.283Z,22.40
2022-10-12T17:54:26.130Z,28.65
2022-10-12T17:56:53.834Z,21.95
2022-10-12T17:59:21.091Z,26.42
2022-10-12T18:01:48.434Z,26.00
2022-10-12T18:04:15.629Z,23.27
2022-10-12T18:06:42.670Z,27.92
2022-10-12T18:09:10.120Z,28.00
2022-10-12T18:11:37.645Z,27.75
2022-10-12T18:14:04.793Z,23.02
2022-10-12T18:16:32.904Z,25.95
2022-10-12T18:19:01.095Z,25.90
2022-10-12T18:21:29.277Z,24.23
2022-10-12T18:23:56.669Z,24.30
2022-10-12T18:26:24.866Z,23.25
2022-10-12T18:28:53.102Z,25.80
2022-10-12T18:31:21.522Z,25.83
2022-10-12T18:33:48.740Z,23.70
2022-10-12T18:36:16.434Z,22.45
2022-10-12T18:38:43.568Z,25.33
2022-10-12T18:41:12.029Z,22.90
2022-10-12T18:43:39.356Z,23.30
2022-10-12T18:46:07.375Z,22.23
2022-10-12T18:48:35.434Z,23.55
2022-10-12T18:51:32.109Z,21.40
2022-10-12T18:54:00.035Z,23.73
2022-10-12T18:56:27.179Z,26.05
2022-10-12T18:58:54.327Z,26.75
2022-10-12T19:01:22.678Z,23.05
2022-10-12T19:03:50.957Z,25.15
2022-10-12T19:06:19.852Z,24.75
2022-10-12T19:08:48.014Z,23.58
2022-10-12T19:11:15.645Z,22.33
2022-10-12T19:13:42.721Z,27.02
2022-10-12T19:16:14.114Z,27.10
2022-10-12T19:18:41.554Z,24.98
2022-10-12T19:21:10.229Z,20.77
2022-10-12T19:23:37.344Z,24.35
2022-10-12T19:26:05.888Z,23.48
2022-10-12T19:28:33.312Z,25.55
2022-10-12T19:31:00.821Z,24.00
2022-10-12T19:33:29.172Z,27.52
2022-10-12T19:35:56.582Z,23.90
2022-10-12T19:38:23.978Z,21.25
2022-10-12T19:40:51.772Z,21.95
2022-10-12T19:43:18.998Z,25.15
2022-10-12T19:45:46.058Z,31.05
2022-10-12T19:48:13.170Z,26.27
2022-10-12T19:50:40.194Z,25.38
2022-10-12T19:53:07.357Z,26.60
2022-10-12T19:55:34.428Z,25.08
2022-10-12T19:58:02.184Z,24.10
2022-10-12T20:00:29.219Z,22.00
2022-10-12T20:02:56.313Z,26.27
2022-10-12T20:05:23.470Z,23.98
2022-10-12T20:07:50.584Z,24.55
2022-10-12T20:10:17.683Z,22.58
2022-10-12T20:12:44.669Z,30.42
2022-10-12T20:15:11.841Z,26.38
2022-10-12T20:17:39.188Z,22.20
2022-10-12T20:20:06.585Z,24.00
2022-10-12T20:22:33.708Z,27.35
2022-10-12T20:25:01.016Z,28.17
2022-10-12T20:27:29.064Z,23.17
2022-10-12T20:29:56.108Z,25.23
2022-10-12T20:32:23.161Z,29.15
2022-10-12T20:34:52.475Z,25.40
2022-10-12T20:37:21.440Z,26.30
2022-10-12T20:39:51.956Z,23.00
2022-10-12T20:42:21.917Z,32.15
2022-10-12T20:44:49.270Z,22.40
2022-10-12T20:47:17.212Z,26.13
2022-10-12T20:49:44.544Z,25.90
2022-10-12T20:52:11.831Z,25.00
2022-10-12T20:54:38.888Z,25.58
2022-10-12T20:57:06.105Z,28.38
2022-10-12T20:59:36.720Z,27.33
2022-10-12T21:02:03.885Z,26.02
2022-10-12T21:04:34.744Z,24.80
2022-10-12T21:07:04.551Z,24.67
2022-10-12T21:09:31.542Z,26.17
2022-10-12T21:11:58.522Z,23.85
2022-10-12T21:14:28.360Z,32.22
2022-10-12T21:16:55.351Z,30.45
2022-10-12T21:19:22.396Z,23.38
2022-10-12T21:21:49.367Z,27.23
2022-10-12T21:24:16.737Z,28.63
2022-10-12T21:26:43.785Z,29.45
2022-10-12T21:29:11.277Z,25.23
2022-10-12T21:31:38.264Z,29.17
2022-10-12T21:34:06.522Z,26.92
2022-10-12T21:36:36.161Z,25.15
2022-10-12T21:39:03.568Z,32.80
2022-10-12T21:41:31.185Z,30.95
2022-10-12T21:43:58.930Z,32.67
2022-10-12T21:46:27.386Z,26.33
2022-10-12T21:48:54.678Z,26.95
2022-10-12T21:51:22.368Z,30.92
2022-10-12T21:53:50.135Z,25.08
2022-10-12T21:56:24.255Z,27.48
2022-10-12T21:58:51.813Z,30.15
2022-10-12T22:01:19.931Z,24.63
2022-10-12T22:03:48.190Z,32.17
2022-10-12T22:06:16.535Z,27.48
2022-10-12T22:08:43.875Z,25.17
2022-10-12T22:11:11.660Z,26.23
2022-10-12T22:13:39.064Z,27.77
2022-10-12T22:16:07.952Z,28.00
2022-10-12T22:18:35.533Z,27.65
2022-10-12T22:21:03.696Z,28.35
2022-10-12T22:23:30.909Z,34.78
2022-10-12T22:26:02.176Z,29.67
2022-10-12T22:28:29.826Z,32.60
2022-10-12T22:30:57.159Z,27.13
2022-10-12T22:33:24.541Z,32.47
2022-10-12T22:35:55.135Z,26.33
2022-10-12T22:38:22.533Z,24.23
2022-10-12T22:41:00.337Z,28.00
2022-10-12T22:43:27.828Z,24.30
2022-10-12T22:45:55.310Z,23.75
2022-10-12T22:48:22.966Z,25.17
2022-10-12T22:50:50.290Z,28.42
2022-10-12T22:53:17.937Z,24.20
2022-10-12T22:55:45.427Z,25.20
2022-10-12T22:58:12.455Z,23.35
2022-10-12T23:00:39.668Z,27.13
2022-10-12T23:03:06.730Z,26.25
2022-10-12T23:05:33.725Z,26.88
2022-10-12T23:08:00.707Z,25.60
2022-10-12T23:10:27.751Z,30.58
2022-10-12T23:12:54.734Z,25.90
2022-10-12T23:15:21.815Z,27.00
2022-10-12T23:17:48.790Z,25.67
2022-10-12T23:20:15.871Z,24.75
2022-10-12T23:22:42.878Z,25.55
2022-10-12T23:25:09.864Z,25.17
2022-10-12T23:27:36.861Z,26.23
2022-10-12T23:30:04.015Z,25.20
2022-10-12T23:32:31.367Z,28.50
2022-10-12T23:34:58.409Z,27.13
2022-10-12T23:37:25.499Z,23.38
2022-10-12T23:39:52.486Z,25.58
2022-10-12T23:42:19.815Z,26.30
2022-10-12T23:44:47.175Z,29.52
2022-10-12T23:47:14.238Z,27.98
2022-10-12T23:49:41.344Z,27.90
2022-10-12T23:52:08.347Z,29.90
2022-10-12T23:54:35.341Z,26.55
2022-10-12T23:57:02.390Z,24.17
2022-10-12T23:59:29.481Z,29.83
